createdAt,value
2019-04-06T00:01:43.060Z,11.90
2019-04-06T00:04:14.972Z,11.90
2019-04-06T00:06:46.811Z,11.90
2019-04-06T00:09:18.752Z,11.90
2019-04-06T00:11:50.588Z,11.90
2019-04-06T00:14:22.489Z,11.90
2019-04-06T00:16:54.409Z,11.90
2019-04-06T00:19:26.348Z,11.90
2019-04-06T00:21:59.480Z,11.80
2019-04-06T00:24:31.412Z,11.90
2019-04-06T00:27:03.262Z,11.80
2019-04-06T00:29:54.008Z,11.90
2019-04-06T00:32:32.622Z,11.80
2019-04-06T00:35:04.443Z,11.80
2019-04-06T00:37:36.157Z,11.80
2019-04-06T00:40:08.813Z,11.80
2019-04-06T00:42:40.446Z,11.80
2019-04-06T00:45:12.170Z,11.80
2019-04-06T00:47:43.974Z,11.80
2019-04-06T00:50:18.321Z,11.80
2019-04-06T00:52:50.026Z,11.80
2019-04-06T00:55:21.680Z,11.80
2019-04-06T00:57:53.489Z,11.80
2019-04-06T01:00:25.264Z,11.80
2019-04-06T01:02:56.959Z,11.90
2019-04-06T01:05:28.601Z,11.90
2019-04-06T01:08:00.319Z,11.90
2019-04-06T01:10:31.998Z,11.90
2019-04-06T01:13:03.667Z,11.90
2019-04-06T01:15:35.364Z,11.90
2019-04-06T01:18:07.021Z,11.90
2019-04-06T01:20:38.718Z,11.90
2019-04-06T01:23:10.496Z,11.90
2019-04-06T01:25:42.170Z,11.90
2019-04-06T01:28:13.829Z,11.90
2019-04-06T01:30:46.990Z,11.90
2019-04-06T01:33:18.879Z,11.90
2019-04-06T01:35:50.575Z,11.90
2019-04-06T01:38:22.401Z,11.80
2019-04-06T01:40:54.086Z,11.80
2019-04-06T01:43:25.887Z,11.80
2019-04-06T01:45:57.614Z,11.80
2019-04-06T01:48:29.306Z,11.80
2019-04-06T01:51:00.962Z,11.80
2019-04-06T01:53:32.713Z,11.80
2019-04-06T01:56:04.411Z,11.80
2019-04-06T01:58:36.080Z,11.80
2019-04-06T02:01:22.025Z,11.80
2019-04-06T02:03:53.718Z,11.80
2019-04-06T02:06:26.515Z,11.90
2019-04-06T02:08:58.188Z,11.90
2019-04-06T02:11:29.893Z,11.90
2019-04-06T02:14:01.596Z,11.90
2019-04-06T02:16:33.273Z,11.90
2019-04-06T02:19:04.958Z,11.90
2019-04-06T02:21:36.634Z,11.90
2019-04-06T02:24:08.384Z,11.90
2019-04-06T02:26:40.036Z,11.90
2019-04-06T02:29:11.728Z,11.90
2019-04-06T02:32:01.222Z,11.90
2019-04-06T02:34:54.881Z,11.90
2019-04-06T02:38:03.697Z,11.90
2019-04-06T02:40:49.216Z,11.90
2019-04-06T02:43:23.609Z,11.90
2019-04-06T02:45:55.258Z,11.90
2019-04-06T02:48:27.053Z,11.90
2019-04-06T02:50:58.660Z,11.90
2019-04-06T02:53:30.316Z,11.90
2019-04-06T02:56:02.119Z,11.90
2019-04-06T02:58:33.851Z,12.00
2019-04-06T03:01:05.536Z,12.00
2019-04-06T03:03:37.239Z,12.00
2019-04-06T03:06:09.380Z,12.00
2019-04-06T03:08:41.018Z,12.00
2019-04-06T03:11:12.810Z,12.00
2019-04-06T03:13:44.529Z,12.00
2019-04-06T03:16:16.413Z,12.10
2019-04-06T03:18:48.045Z,12.00
2019-04-06T03:21:19.719Z,12.00
2019-04-06T03:23:52.446Z,12.00
2019-04-06T03:26:24.380Z,12.00
2019-04-06T03:28:56.040Z,12.00
2019-04-06T03:31:28.219Z,12.00
2019-04-06T03:34:00.098Z,12.00
2019-04-06T03:36:31.871Z,12.00
2019-04-06T03:39:05.096Z,12.00
2019-04-06T03:41:36.885Z,12.00
2019-04-06T03:44:09.849Z,12.00
2019-04-06T03:46:41.506Z,12.00
2019-04-06T03:49:13.175Z,12.00
2019-04-06T03:51:44.857Z,12.00
2019-04-06T03:54:16.583Z,12.00
2019-04-06T03:56:48.279Z,12.00
2019-04-06T03:59:19.978Z,12.00
2019-04-06T04:01:51.664Z,12.00
2019-04-06T04:04:23.360Z,12.00
2019-04-06T04:06:55.028Z,12.00
2019-04-06T04:09:26.707Z,12.00
2019-04-06T04:11:58.388Z,12.00
2019-04-06T04:14:30.098Z,12.10
2019-04-06T04:17:01.859Z,12.10
2019-04-06T04:19:33.562Z,12.10
2019-04-06T04:22:05.280Z,12.10
2019-04-06T04:24:37.176Z,12.10
2019-04-06T04:27:09.002Z,12.10
2019-04-06T04:29:40.705Z,12.10
2019-04-06T04:32:12.419Z,12.10
2019-04-06T04:34:44.106Z,12.10
2019-04-06T04:37:15.767Z,12.10
2019-04-06T04:39:47.444Z,12.10
2019-04-06T04:42:19.098Z,12.20
2019-04-06T04:44:51.922Z,12.10
2019-04-06T04:47:23.762Z,12.10
2019-04-06T04:49:55.475Z,12.10
2019-04-06T04:52:28.582Z,12.20
2019-04-06T04:55:00.354Z,12.10
2019-04-06T04:57:40.190Z,12.10
2019-04-06T05:00:06.228Z,12.10
2019-04-06T05:02:38.040Z,12.10
2019-04-06T05:05:09.991Z,12.10
2019-04-06T05:07:41.658Z,12.20
2019-04-06T05:10:13.708Z,12.20
2019-04-06T05:12:45.473Z,12.10
2019-04-06T05:15:30.023Z,12.10
2019-04-06T05:18:01.705Z,12.10
2019-04-06T05:20:33.396Z,12.10
2019-04-06T05:23:06.060Z,12.20
2019-04-06T05:25:37.736Z,12.20
2019-04-06T05:28:09.392Z,12.20
2019-04-06T05:30:41.147Z,12.20
2019-04-06T05:33:15.012Z,12.20
2019-04-06T05:35:46.652Z,12.20
2019-04-06T05:38:18.317Z,12.20
2019-04-06T05:40:50.003Z,12.20
2019-04-06T05:43:22.951Z,12.20
2019-04-06T05:45:54.655Z,12.20
2019-04-06T05:48:26.327Z,12.20
2019-04-06T05:50:58.155Z,12.20
2019-04-06T05:53:29.900Z,12.20
2019-04-06T05:56:01.786Z,12.20
2019-04-06T05:58:34.083Z,12.20
2019-04-06T06:01:10.243Z,12.20
2019-04-06T06:03:41.248Z,12.30
2019-04-06T06:06:13.467Z,12.30
2019-04-06T06:08:45.167Z,12.30
2019-04-06T06:11:16.854Z,12.30
2019-04-06T06:13:48.548Z,12.30
2019-04-06T06:16:20.343Z,12.30
2019-04-06T06:18:52.204Z,12.40
2019-04-06T06:21:24.108Z,12.40
2019-04-06T06:23:55.784Z,12.50
2019-04-06T06:26:29.403Z,12.50
2019-04-06T06:29:01.119Z,12.50
2019-04-06T06:31:32.999Z,12.50
2019-04-06T06:34:06.150Z,12.50
2019-04-06T06:36:38.345Z,12.50
2019-04-06T06:39:10.812Z,12.50
2019-04-06T06:41:42.567Z,12.60
2019-04-06T06:44:14.391Z,12.60
2019-04-06T06:46:46.088Z,12.60
2019-04-06T06:49:17.824Z,12.60
2019-04-06T06:51:49.595Z,12.60
2019-04-06T06:54:21.297Z,12.70
2019-04-06T06:56:53.157Z,12.70
2019-04-06T06:59:24.848Z,12.70
2019-04-06T07:01:56.526Z,12.80
2019-04-06T07:04:29.417Z,12.80
2019-04-06T07:07:01.209Z,12.80
2019-04-06T07:09:33.112Z,12.90
2019-04-06T07:12:04.767Z,12.90
2019-04-06T07:14:36.527Z,13.00
2019-04-06T07:17:08.274Z,13.00
2019-04-06T07:19:39.950Z,13.10
2019-04-06T07:22:13.460Z,13.10
2019-04-06T07:24:45.208Z,13.00
2019-04-06T07:27:16.934Z,13.20
2019-04-06T07:29:48.625Z,13.20
2019-04-06T07:32:20.508Z,13.30
2019-04-06T07:34:52.216Z,13.30
2019-04-06T07:37:24.547Z,13.30
2019-04-06T07:39:56.375Z,13.40
2019-04-06T07:42:29.382Z,13.40
2019-04-06T07:45:01.203Z,13.50
2019-04-06T07:47:32.929Z,13.50
2019-04-06T07:50:05.010Z,13.60
2019-04-06T07:52:36.688Z,13.60
2019-04-06T07:55:08.603Z,13.70
2019-04-06T07:57:40.358Z,13.70
2019-04-06T08:00:13.920Z,13.80
2019-04-06T08:02:47.108Z,13.80
2019-04-06T08:05:19.169Z,13.80
2019-04-06T08:07:50.850Z,13.90
2019-04-06T08:10:22.555Z,14.00
2019-04-06T08:12:55.374Z,14.00
2019-04-06T08:15:27.193Z,14.10
2019-04-06T08:17:59.002Z,14.10
2019-04-06T08:20:30.696Z,14.20
2019-04-06T08:23:14.379Z,14.30
2019-04-06T08:25:46.346Z,14.30
2019-04-06T08:28:18.381Z,14.40
2019-04-06T08:30:50.191Z,14.40
2019-04-06T08:33:23.934Z,14.50
2019-04-06T08:35:56.062Z,14.50
2019-04-06T08:38:27.805Z,14.60
2019-04-06T08:40:59.591Z,14.60
2019-04-06T08:43:31.448Z,14.70
2019-04-06T08:46:03.186Z,14.70
2019-04-06T08:48:35.000Z,14.80
2019-04-06T08:51:06.903Z,14.90
2019-04-06T08:53:38.702Z,14.90
2019-04-06T08:56:11.893Z,15.00
2019-04-06T08:58:43.608Z,15.10
2019-04-06T09:01:15.414Z,15.20
2019-04-06T09:03:47.134Z,15.30
2019-04-06T09:06:18.888Z,15.30
2019-04-06T09:08:52.492Z,15.40
2019-04-06T09:11:24.308Z,15.50
2019-04-06T09:13:58.023Z,15.60
2019-04-06T09:16:29.746Z,15.70
2019-04-06T09:19:01.544Z,15.70
2019-04-06T09:21:33.257Z,15.80
2019-04-06T09:24:05.093Z,15.90
2019-04-06T09:26:36.937Z,15.90
2019-04-06T09:29:08.916Z,15.90
2019-04-06T09:31:42.636Z,16.00
2019-04-06T09:34:14.415Z,16.00
2019-04-06T09:36:46.257Z,16.00
2019-04-06T09:39:18.375Z,16.00
2019-04-06T09:41:51.536Z,16.00
2019-04-06T09:44:45.322Z,16.00
2019-04-06T09:47:36.080Z,16.00
2019-04-06T09:50:18.806Z,16.00
2019-04-06T09:53:05.533Z,16.10
2019-04-06T09:55:47.460Z,16.20
2019-04-06T09:58:36.623Z,16.30
2019-04-06T10:01:39.588Z,16.40
2019-04-06T10:04:32.718Z,16.50
2019-04-06T10:07:42.377Z,16.60
2019-04-06T10:10:48.563Z,16.60
2019-04-06T10:13:45.179Z,16.60
2019-04-06T10:16:35.952Z,16.60
2019-04-06T10:19:29.571Z,16.90
2019-04-06T10:22:13.319Z,16.60
2019-04-06T10:25:02.914Z,16.60
2019-04-06T10:27:45.708Z,16.50
2019-04-06T10:30:34.955Z,16.50
2019-04-06T10:33:31.670Z,16.50
2019-04-06T10:36:22.605Z,16.50
2019-04-06T10:39:17.386Z,16.40
2019-04-06T10:42:07.124Z,16.40
2019-04-06T10:45:03.781Z,16.40
2019-04-06T10:47:47.629Z,16.40
2019-04-06T10:50:38.458Z,16.50
2019-04-06T10:53:41.004Z,16.50
2019-04-06T10:56:30.265Z,16.50
2019-04-06T10:59:20.532Z,16.50
2019-04-06T11:02:09.839Z,16.50
2019-04-06T11:04:49.293Z,16.60
2019-04-06T11:07:23.531Z,16.70
2019-04-06T11:10:14.107Z,16.80
2019-04-06T11:13:05.460Z,16.90
2019-04-06T11:16:08.418Z,17.00
2019-04-06T11:18:54.783Z,17.00
2019-04-06T11:21:44.415Z,17.10
2019-04-06T11:24:38.133Z,17.20
2019-04-06T11:27:28.860Z,17.20
2019-04-06T11:30:29.062Z,17.30
2019-04-06T11:33:19.870Z,17.40
2019-04-06T11:36:09.207Z,17.70
2019-04-06T11:38:58.455Z,18.10
2019-04-06T11:41:58.448Z,18.50
2019-04-06T11:44:53.905Z,19.10
2019-04-06T11:47:37.317Z,19.70
2019-04-06T11:50:21.803Z,20.30
2019-04-06T11:53:27.932Z,20.80
2019-04-06T11:56:11.078Z,21.30
2019-04-06T11:58:50.707Z,21.70
2019-04-06T12:01:27.914Z,21.90
2019-04-06T12:04:21.157Z,22.00
2019-04-06T12:07:00.802Z,22.10
2019-04-06T12:09:56.183Z,22.10
2019-04-06T12:12:49.729Z,22.00
2019-04-06T12:15:47.830Z,21.90
2019-04-06T12:18:57.154Z,21.60
2019-04-06T12:21:50.656Z,21.50
2019-04-06T12:24:50.531Z,21.40
2019-04-06T12:27:43.106Z,21.40
2019-04-06T12:30:40.175Z,21.40
2019-04-06T12:33:32.071Z,21.40
2019-04-06T12:36:28.773Z,21.50
2019-04-06T12:39:18.440Z,21.70
2019-04-06T12:41:57.675Z,21.90
2019-04-06T12:44:51.018Z,22.10
2019-04-06T12:47:38.327Z,22.20
2019-04-06T12:50:28.090Z,22.40
2019-04-06T12:53:24.677Z,22.70
2019-04-06T12:56:07.807Z,22.80
2019-04-06T12:58:58.507Z,23.10
2019-04-06T13:02:01.463Z,23.30
2019-04-06T13:04:58.647Z,23.50
2019-04-06T13:07:56.612Z,23.80
2019-04-06T13:10:46.035Z,24.20
2019-04-06T13:13:27.719Z,24.50
2019-04-06T13:16:26.407Z,24.80
2019-04-06T13:19:10.514Z,25.00
2019-04-06T13:22:00.152Z,25.10
2019-04-06T13:25:00.467Z,25.30
2019-04-06T13:27:40.847Z,25.50
2019-04-06T13:30:31.134Z,25.70
2019-04-06T13:33:09.639Z,25.80
2019-04-06T13:36:02.810Z,25.70
2019-04-06T13:38:52.512Z,25.50
2019-04-06T13:41:52.159Z,25.20
2019-04-06T13:44:37.242Z,25.00
2019-04-06T13:47:28.955Z,24.70
2019-04-06T13:50:25.433Z,24.40
2019-04-06T13:53:11.200Z,24.30
2019-04-06T13:56:20.728Z,24.20
2019-04-06T13:59:29.507Z,24.00
2019-04-06T14:02:11.485Z,23.90
2019-04-06T14:04:53.430Z,23.60
2019-04-06T14:07:38.674Z,23.50
2019-04-06T14:10:29.941Z,23.30
2019-04-06T14:13:30.237Z,23.20
2019-04-06T14:16:18.979Z,23.10
2019-04-06T14:19:09.782Z,23.00
2019-04-06T14:22:00.395Z,23.00
2019-04-06T14:24:53.952Z,23.10
2019-04-06T14:27:38.304Z,23.10
2019-04-06T14:30:38.172Z,23.20
2019-04-06T14:33:31.952Z,23.20
2019-04-06T14:36:35.232Z,23.20
2019-04-06T14:39:17.460Z,23.10
2019-04-06T14:42:07.069Z,23.10
2019-04-06T14:44:57.816Z,23.00
2019-04-06T14:47:44.693Z,22.90
2019-04-06T14:50:35.215Z,22.80
2019-04-06T14:53:26.188Z,22.70
2019-04-06T14:56:08.052Z,22.50
2019-04-06T14:58:58.269Z,22.40
2019-04-06T15:01:58.183Z,22.30
2019-04-06T15:04:44.475Z,22.20
2019-04-06T15:07:34.076Z,22.00
2019-04-06T15:10:28.735Z,21.90
2019-04-06T15:13:18.196Z,21.80
2019-04-06T15:16:06.173Z,21.80
2019-04-06T15:19:02.024Z,21.70
2019-04-06T15:21:56.082Z,21.70
2019-04-06T15:24:49.807Z,21.70
2019-04-06T15:27:40.754Z,21.70
2019-04-06T15:30:31.868Z,21.60
2019-04-06T15:33:21.188Z,21.70
2019-04-06T15:36:29.887Z,21.60
2019-04-06T15:39:32.738Z,21.60
2019-04-06T15:42:15.100Z,21.60
2019-04-06T15:45:18.040Z,21.60
2019-04-06T15:48:07.350Z,21.70
2019-04-06T15:50:45.950Z,21.70
2019-04-06T15:53:48.525Z,21.70
2019-04-06T15:56:39.112Z,21.70
2019-04-06T15:59:47.841Z,21.70
2019-04-06T16:02:47.470Z,21.70
2019-04-06T16:05:37.711Z,21.70
2019-04-06T16:08:28.880Z,21.70
2019-04-06T16:11:25.499Z,21.80
2019-04-06T16:14:31.254Z,21.70
2019-04-06T16:17:11.920Z,21.80
2019-04-06T16:20:06.979Z,21.80
2019-04-06T16:23:06.720Z,21.70
2019-04-06T16:25:48.881Z,21.70
2019-04-06T16:28:42.134Z,21.60
2019-04-06T16:31:20.524Z,21.50
2019-04-06T16:34:09.458Z,21.50
2019-04-06T16:37:12.377Z,21.40
2019-04-06T16:40:01.354Z,21.40
2019-04-06T16:42:57.772Z,21.30
2019-04-06T16:45:40.050Z,21.30
2019-04-06T16:48:19.111Z,21.20
2019-04-06T16:51:22.306Z,21.20
2019-04-06T16:54:06.850Z,21.10
2019-04-06T16:57:12.574Z,21.10
2019-04-06T16:59:56.899Z,21.00
2019-04-06T17:02:46.030Z,21.00
2019-04-06T17:05:24.876Z,20.90
2019-04-06T17:08:15.637Z,20.80
2019-04-06T17:11:06.361Z,20.80
2019-04-06T17:13:57.000Z,20.70
2019-04-06T17:16:47.769Z,20.60
2019-04-06T17:19:53.307Z,20.60
2019-04-06T17:22:31.086Z,20.50
2019-04-06T17:25:27.782Z,20.40
2019-04-06T17:28:24.386Z,20.30
2019-04-06T17:31:19.086Z,20.20
2019-04-06T17:33:58.113Z,20.10
2019-04-06T17:36:37.364Z,20.10
2019-04-06T17:39:39.123Z,20.00
2019-04-06T17:42:48.181Z,19.90
2019-04-06T17:45:42.687Z,19.80
2019-04-06T17:48:26.537Z,19.70
2019-04-06T17:51:19.943Z,19.60
2019-04-06T17:54:14.543Z,19.50
2019-04-06T17:56:59.200Z,19.40
2019-04-06T17:59:42.041Z,19.30
2019-04-06T18:02:46.902Z,19.20
2019-04-06T18:05:28.291Z,19.20
2019-04-06T18:08:18.990Z,19.10
2019-04-06T18:10:59.689Z,19.00
2019-04-06T18:13:46.213Z,18.90
2019-04-06T18:16:20.876Z,18.80
2019-04-06T18:18:52.563Z,18.80
2019-04-06T18:21:24.571Z,18.70
2019-04-06T18:23:56.301Z,18.60
2019-04-06T18:26:28.035Z,18.60
2019-04-06T18:29:00.062Z,18.50
2019-04-06T18:31:56.630Z,18.40
2019-04-06T18:34:29.557Z,18.40
2019-04-06T18:37:29.593Z,18.30
2019-04-06T18:40:02.724Z,18.20
2019-04-06T18:42:34.622Z,18.20
2019-04-06T18:45:06.898Z,18.10
2019-04-06T18:47:39.034Z,18.00
2019-04-06T18:50:12.875Z,18.00
2019-04-06T18:52:44.669Z,17.90
2019-04-06T18:55:16.566Z,17.80
2019-04-06T18:57:48.385Z,17.80
2019-04-06T19:00:21.084Z,17.60
2019-04-06T19:02:52.832Z,17.60
2019-04-06T19:05:25.092Z,17.50
2019-04-06T19:07:56.918Z,17.50
2019-04-06T19:10:31.714Z,17.40
2019-04-06T19:13:03.485Z,17.40
2019-04-06T19:15:35.372Z,17.30
2019-04-06T19:18:07.196Z,17.30
2019-04-06T19:20:39.253Z,17.20
2019-04-06T19:23:11.979Z,17.10
2019-04-06T19:25:44.272Z,17.10
2019-04-06T19:28:16.602Z,17.00
2019-04-06T19:30:48.702Z,17.00
2019-04-06T19:33:25.155Z,16.90
2019-04-06T19:35:54.013Z,16.90
2019-04-06T19:38:25.797Z,16.80
2019-04-06T19:40:59.717Z,16.80
2019-04-06T19:43:31.503Z,16.70
2019-04-06T19:46:03.371Z,16.60
2019-04-06T19:48:35.131Z,16.60
2019-04-06T19:51:07.109Z,16.60
2019-04-06T19:53:39.080Z,16.50
2019-04-06T19:56:10.940Z,16.50
2019-04-06T19:58:42.847Z,16.40
2019-04-06T20:01:14.776Z,16.40
2019-04-06T20:03:46.630Z,16.30
2019-04-06T20:06:18.395Z,16.30
2019-04-06T20:08:50.204Z,16.20
2019-04-06T20:11:22.075Z,16.20
2019-04-06T20:13:54.059Z,16.20
2019-04-06T20:16:26.393Z,16.10
2019-04-06T20:18:59.808Z,16.10
2019-04-06T20:21:31.843Z,16.00
2019-04-06T20:24:04.112Z,16.00
2019-04-06T20:26:36.143Z,15.90
2019-04-06T20:29:07.994Z,15.90
2019-04-06T20:31:39.996Z,15.80
2019-04-06T20:34:11.905Z,15.80
2019-04-06T20:36:43.866Z,15.70
2019-04-06T20:39:15.728Z,15.70
2019-04-06T20:41:48.103Z,15.60
2019-04-06T20:44:20.054Z,15.60
2019-04-06T20:46:51.890Z,15.50
2019-04-06T20:49:24.659Z,15.50
2019-04-06T20:51:58.739Z,15.40
2019-04-06T20:54:29.979Z,15.40
2019-04-06T20:57:01.935Z,15.30
2019-04-06T20:59:33.728Z,15.30
2019-04-06T21:02:05.712Z,15.20
2019-04-06T21:04:37.492Z,15.10
2019-04-06T21:07:11.140Z,15.10
2019-04-06T21:09:43.731Z,15.10
2019-04-06T21:12:15.987Z,15.00
2019-04-06T21:14:48.059Z,15.00
2019-04-06T21:17:20.219Z,15.00
2019-04-06T21:19:53.624Z,14.90
2019-04-06T21:22:26.171Z,14.80
2019-04-06T21:24:58.284Z,14.80
2019-04-06T21:27:30.423Z,14.80
2019-04-06T21:30:04.019Z,14.70
2019-04-06T21:32:36.081Z,14.70
2019-04-06T21:35:08.656Z,14.60
2019-04-06T21:37:41.604Z,14.60
2019-04-06T21:40:16.215Z,14.60
2019-04-06T21:42:48.451Z,14.50
2019-04-06T21:45:20.705Z,14.50
2019-04-06T21:48:11.636Z,14.40
2019-04-06T21:50:43.634Z,14.40
2019-04-06T21:53:15.439Z,14.40
2019-04-06T21:55:47.275Z,14.30
2019-04-06T21:58:19.343Z,14.30
2019-04-06T22:00:53.782Z,14.30
2019-04-06T22:03:25.983Z,14.20
2019-04-06T22:05:59.329Z,14.20
2019-04-06T22:08:31.732Z,14.10
2019-04-06T22:11:03.853Z,14.10
2019-04-06T22:13:36.554Z,14.10
2019-04-06T22:16:08.608Z,14.00
2019-04-06T22:18:40.698Z,14.00
2019-04-06T22:21:12.544Z,14.00
2019-04-06T22:23:45.306Z,13.90
2019-04-06T22:26:18.245Z,13.90
2019-04-06T22:28:50.140Z,13.80
2019-04-06T22:31:22.468Z,13.80
2019-04-06T22:33:54.176Z,13.70
2019-04-06T22:36:26.049Z,13.70
2019-04-06T22:38:57.875Z,13.70
2019-04-06T22:41:29.860Z,13.60
2019-04-06T22:44:01.861Z,13.60
2019-04-06T22:46:33.768Z,13.60
2019-04-06T22:49:06.634Z,13.60
2019-04-06T22:51:39.056Z,13.50
2019-04-06T22:54:10.968Z,13.50
2019-04-06T22:56:42.897Z,13.60
2019-04-06T22:59:18.880Z,13.60
2019-04-06T23:01:50.674Z,13.60
2019-04-06T23:04:46.676Z,13.70
2019-04-06T23:07:13.238Z,13.90
2019-04-06T23:09:46.660Z,14.00
2019-04-06T23:12:20.313Z,14.10
2019-04-06T23:14:52.165Z,14.20
2019-04-06T23:17:23.900Z,14.30
2019-04-06T23:19:57.052Z,14.40
2019-04-06T23:22:28.808Z,14.50
2019-04-06T23:25:01.910Z,14.50
2019-04-06T23:27:33.731Z,14.60
2019-04-06T23:30:06.608Z,14.70
2019-04-06T23:32:38.354Z,14.80
2019-04-06T23:35:10.393Z,14.90
2019-04-06T23:37:42.134Z,14.90
2019-04-06T23:40:14.546Z,15.00
2019-04-06T23:42:46.972Z,15.10
2019-04-06T23:45:18.890Z,15.10
2019-04-06T23:47:51.072Z,15.10
2019-04-06T23:50:22.841Z,15.20
2019-04-06T23:52:54.602Z,15.20
2019-04-06T23:55:26.348Z,15.20
2019-04-06T23:57:58.048Z,15.30
